Time;durP1;ratioP1;P1;durP2;ratioP2;P2;SDS_P1;SDS_P2;PMS_P1;PMS_P2;Temp;Humidity;BMP_temperature;BMP_pressure;BME280_temperature;BME280_humidity;BME280_pressure;Samples;Min_cycle;Max_cycle;Signal;HPM_P1;HPM_P2
2023/08/10 00:00:58;;;;;;;1.73;1.23;;;10.60;99.90;;;;;;4996774;28;20030;-80
2023/08/10 00:03:24;;;;;;;3.83;1.65;;;10.60;99.90;;;;;;4989463;28;20039;-83
2023/08/10 00:05:50;;;;;;;3.08;1.45;;;10.60;99.90;;;;;;4992896;28;20034;-83
2023/08/10 00:08:16;;;;;;;1.40;1.30;;;10.60;99.90;;;;;;4988350;28;20300;-80
2023/08/10 00:10:42;;;;;;;4.93;1.45;;;10.60;99.90;;;;;;4989937;28;20034;-80
2023/08/10 00:13:08;;;;;;;1.50;1.27;;;10.50;99.90;;;;;;4963250;28;20627;-80
2023/08/10 00:15:34;;;;;;;3.13;1.60;;;10.50;99.90;;;;;;4975550;28;20038;-82
2023/08/10 00:18:00;;;;;;;1.67;1.58;;;10.50;99.90;;;;;;4988094;28;20031;-80
2023/08/10 00:20:26;;;;;;;1.58;1.30;;;10.50;99.90;;;;;;5006575;28;21132;-80
2023/08/10 00:22:52;;;;;;;3.65;1.73;;;10.40;99.90;;;;;;4991721;28;20038;-80
2023/08/10 00:25:18;;;;;;;5.32;1.92;;;10.40;99.90;;;;;;4996136;28;20038;-79
2023/08/10 00:27:44;;;;;;;5.53;1.60;;;10.40;99.90;;;;;;4987421;28;20031;-80
2023/08/10 00:30:10;;;;;;;2.50;1.48;;;10.30;99.90;;;;;;4985741;28;20803;-79
2023/08/10 00:32:36;;;;;;;2.67;1.30;;;10.30;99.90;;;;;;4969574;28;20034;-80
2023/08/10 00:35:03;;;;;;;4.70;1.40;;;10.30;99.90;;;;;;4972746;28;20095;-80
2023/08/10 00:37:28;;;;;;;3.35;1.40;;;10.30;99.90;;;;;;4997674;28;20090;-80
2023/08/10 00:39:54;;;;;;;1.55;1.30;;;10.20;99.90;;;;;;4994608;28;20031;-79
2023/08/10 00:42:21;;;;;;;4.82;1.70;;;10.20;99.90;;;;;;4994380;28;20055;-81
2023/08/10 00:44:46;;;;;;;2.78;1.65;;;10.20;99.90;;;;;;4997392;28;20034;-79
2023/08/10 00:47:14;;;;;;;3.90;1.60;;;10.10;99.90;;;;;;4982532;28;20088;-79
2023/08/10 00:49:40;;;;;;;2.40;1.50;;;10.10;99.90;;;;;;4994396;28;20053;-80
2023/08/10 00:52:06;;;;;;;4.30;1.50;;;10.00;99.90;;;;;;4983333;28;20026;-82
2023/08/10 00:54:33;;;;;;;1.55;1.23;;;10.00;99.90;;;;;;4961542;28;20055;-80
2023/08/10 00:56:59;;;;;;;4.15;1.50;;;9.90;99.90;;;;;;4989200;28;20035;-80
2023/08/10 00:59:27;;;;;;;3.95;1.50;;;9.90;99.90;;;;;;4980589;28;20113;-80
2023/08/10 01:01:53;;;;;;;2.63;1.65;;;9.90;99.90;;;;;;4985051;28;20062;-80
2023/08/10 01:04:19;;;;;;;2.03;1.45;;;9.90;99.90;;;;;;4997324;28;20060;-80
2023/08/10 01:07:13;;;;;;;4.72;1.70;;;9.80;99.90;;;;;;4988923;28;20042;-80
2023/08/10 01:09:41;;;;;;;3.58;1.45;;;9.80;99.90;;;;;;4970506;28;20042;-82
2023/08/10 01:12:13;;;;;;;3.17;1.27;;;9.70;99.90;;;;;;4992747;28;20392;-79
2023/08/10 01:15:03;;;;;;;1.45;1.35;;;9.70;99.90;;;;;;4975159;28;20038;-79
2023/08/10 01:17:34;;;;;;;2.58;1.27;;;9.60;99.90;;;;;;4996808;28;20033;-81
2023/08/10 01:20:04;;;;;;;3.58;1.33;;;9.60;99.90;;;;;;5002651;28;20034;-82
2023/08/10 01:22:46;;;;;;;3.55;1.42;;;9.60;99.90;;;;;;4990267;28;20041;-80
2023/08/10 01:25:12;;;;;;;3.63;1.50;;;9.50;99.90;;;;;;4978178;28;20132;-80
2023/08/10 01:27:38;;;;;;;1.85;1.30;;;9.50;99.90;;;;;;4979641;28;20054;-79
2023/08/10 01:30:07;;;;;;;1.35;1.25;;;9.50;99.90;;;;;;4992117;28;20050;-81
2023/08/10 01:32:33;;;;;;;2.85;1.52;;;9.50;99.90;;;;;;4994203;28;20542;-80
2023/08/10 01:35:00;;;;;;;2.78;1.38;;;9.50;99.90;;;;;;4976638;28;20127;-81
2023/08/10 01:37:27;;;;;;;2.00;1.48;;;9.50;99.90;;;;;;4993414;28;20030;-80
2023/08/10 01:39:52;;;;;;;3.00;1.60;;;9.50;99.90;;;;;;4992713;28;20062;-80
2023/08/10 01:42:20;;;;;;;3.40;1.42;;;9.50;99.90;;;;;;4976929;28;20022;-80
2023/08/10 01:44:46;;;;;;;3.67;1.70;;;9.40;99.90;;;;;;4986788;28;20042;-80
2023/08/10 01:47:33;;;;;;;3.63;1.70;;;9.40;99.90;;;;;;4996370;28;20038;-79
2023/08/10 01:50:01;;;;;;;4.50;1.70;;;9.30;99.90;;;;;;4987772;28;20113;-79
2023/08/10 01:52:33;;;;;;;2.45;2.08;;;9.30;99.90;;;;;;4989444;28;20030;-81
2023/08/10 01:54:59;;;;;;;1.52;1.42;;;9.30;99.90;;;;;;4971290;28;20069;-80
2023/08/10 01:57:28;;;;;;;1.63;1.52;;;9.30;99.90;;;;;;4992400;28;20090;-81
2023/08/10 01:59:54;;;;;;;1.90;1.70;;;9.30;99.90;;;;;;4983340;28;20502;-79
2023/08/10 02:02:20;;;;;;;2.20;2.00;;;9.20;99.90;;;;;;4987676;28;20090;-80
2023/08/10 02:04:46;;;;;;;2.33;1.63;;;9.20;99.90;;;;;;4981243;28;20058;-81
2023/08/10 02:07:12;;;;;;;3.95;1.60;;;9.10;99.90;;;;;;4996520;28;20124;-80
2023/08/10 02:09:38;;;;;;;5.90;2.17;;;9.10;99.90;;;;;;4981752;28;20035;-82
2023/08/10 02:12:04;;;;;;;1.75;1.65;;;9.10;99.90;;;;;;4989121;28;20093;-83
2023/08/10 02:14:30;;;;;;;4.53;1.77;;;9.10;99.90;;;;;;4992745;28;20034;-81
2023/08/10 02:16:56;;;;;;;4.65;1.77;;;9.00;99.90;;;;;;4976576;28;20026;-81
2023/08/10 02:19:22;;;;;;;1.65;1.55;;;9.00;99.90;;;;;;4986003;28;20442;-80
2023/08/10 02:21:49;;;;;;;4.45;1.45;;;9.00;99.90;;;;;;4978192;28;20463;-81
2023/08/10 02:24:15;;;;;;;4.38;1.83;;;9.00;99.90;;;;;;4993506;28;20069;-81
2023/08/10 02:26:41;;;;;;;5.78;1.90;;;9.00;99.90;;;;;;5000184;28;20053;-81
2023/08/10 02:29:07;;;;;;;2.70;1.50;;;9.00;99.90;;;;;;4991103;28;20043;-82
2023/08/10 02:31:33;;;;;;;3.45;1.20;;;8.90;99.90;;;;;;4968235;28;20097;-81
2023/08/10 02:33:58;;;;;;;1.85;1.70;;;8.90;99.90;;;;;;4997103;28;20239;-81
2023/08/10 02:36:24;;;;;;;6.78;1.70;;;9.00;99.90;;;;;;5000219;28;20026;-80
2023/08/10 02:38:50;;;;;;;2.60;1.63;;;8.90;99.90;;;;;;4998308;28;20035;-83
2023/08/10 02:41:15;;;;;;;4.05;1.52;;;8.80;99.90;;;;;;4964429;28;20113;-82
2023/08/10 02:43:41;;;;;;;1.85;1.40;;;8.80;99.90;;;;;;4959200;28;20050;-80
2023/08/10 02:46:08;;;;;;;3.45;1.70;;;8.80;99.90;;;;;;4995310;28;20030;-80
2023/08/10 02:48:34;;;;;;;1.48;1.30;;;8.70;99.90;;;;;;4974533;28;20088;-80
2023/08/10 02:51:00;;;;;;;2.28;1.40;;;8.70;99.90;;;;;;4988282;28;20639;-80
2023/08/10 02:53:26;;;;;;;2.55;1.63;;;8.70;99.90;;;;;;4995193;28;20065;-80
2023/08/10 02:55:51;;;;;;;1.60;1.42;;;8.60;99.90;;;;;;4992300;28;20050;-80
2023/08/10 02:58:18;;;;;;;1.77;1.67;;;8.60;99.90;;;;;;4995940;28;20077;-81
2023/08/10 03:00:43;;;;;;;4.72;1.58;;;8.60;99.90;;;;;;4989019;28;20074;-80
2023/08/10 03:03:09;;;;;;;2.97;1.80;;;8.60;99.90;;;;;;4974231;28;20171;-80
2023/08/10 03:05:35;;;;;;;2.03;1.92;;;8.60;99.90;;;;;;4978370;28;20469;-83
2023/08/10 03:08:01;;;;;;;2.70;1.90;;;8.60;99.90;;;;;;4981503;28;20305;-81
2023/08/10 03:10:27;;;;;;;3.53;2.00;;;8.60;99.90;;;;;;4976399;28;20034;-81
2023/08/10 03:12:53;;;;;;;1.70;1.60;;;8.60;99.90;;;;;;4992013;28;20045;-79
2023/08/10 03:15:19;;;;;;;1.70;1.60;;;8.60;99.90;;;;;;4987870;28;20034;-80
2023/08/10 03:17:44;;;;;;;3.17;1.67;;;8.60;99.90;;;;;;4988193;28;20058;-80
2023/08/10 03:20:16;;;;;;;3.97;1.83;;;8.60;99.90;;;;;;4995574;28;20131;-80
2023/08/10 03:22:46;;;;;;;4.93;1.70;;;8.50;99.90;;;;;;4963062;28;20090;-82
2023/08/10 03:25:13;;;;;;;5.50;1.50;;;8.50;99.90;;;;;;4986785;28;20039;-79
2023/08/10 03:27:38;;;;;;;1.95;1.65;;;8.50;99.90;;;;;;4978294;28;20101;-81
2023/08/10 03:30:08;;;;;;;2.08;1.88;;;8.50;99.90;;;;;;4977231;28;20543;-80
2023/08/10 03:32:35;;;;;;;2.10;1.95;;;8.50;99.90;;;;;;4974809;28;20038;-81
2023/08/10 03:35:01;;;;;;;4.00;1.77;;;8.50;99.90;;;;;;4984801;28;20038;-82
2023/08/10 03:37:27;;;;;;;3.67;1.90;;;8.50;99.90;;;;;;4988996;28;20137;-80
2023/08/10 03:39:53;;;;;;;2.92;1.50;;;8.50;99.90;;;;;;4979651;28;20117;-81
2023/08/10 03:42:19;;;;;;;1.70;1.60;;;8.50;99.90;;;;;;4997544;28;20577;-79
2023/08/10 03:44:45;;;;;;;1.85;1.75;;;8.50;99.90;;;;;;4990704;28;20035;-81
2023/08/10 03:47:11;;;;;;;2.38;1.88;;;8.50;99.90;;;;;;4982258;28;20038;-81
2023/08/10 03:49:36;;;;;;;2.38;1.58;;;8.50;99.90;;;;;;4998094;28;20833;-82
2023/08/10 03:52:02;;;;;;;3.08;2.00;;;8.50;99.90;;;;;;4997391;28;20590;-81
2023/08/10 03:54:31;;;;;;;1.50;1.40;;;8.40;99.90;;;;;;5001626;28;20045;-79
2023/08/10 03:56:57;;;;;;;4.20;1.67;;;8.40;99.90;;;;;;4985183;28;20520;-80
2023/08/10 03:59:24;;;;;;;3.38;1.70;;;8.40;99.90;;;;;;4997090;28;20030;-81
2023/08/10 04:01:51;;;;;;;3.28;1.70;;;8.40;99.90;;;;;;4974943;28;20414;-79
2023/08/10 04:04:17;;;;;;;4.07;1.50;;;8.40;99.90;;;;;;4975028;28;20046;-80
2023/08/10 04:06:43;;;;;;;1.70;1.60;;;8.40;99.90;;;;;;4980779;28;20395;-81
2023/08/10 04:09:09;;;;;;;1.95;1.60;;;8.30;99.90;;;;;;4979278;28;20050;-79
2023/08/10 04:11:36;;;;;;;1.67;1.58;;;8.30;99.90;;;;;;4977166;28;20038;-79
2023/08/10 04:14:01;;;;;;;2.75;1.30;;;8.30;99.90;;;;;;4980463;28;20031;-80
2023/08/10 04:16:27;;;;;;;4.07;1.77;;;8.30;99.90;;;;;;4981187;28;20454;-79
2023/08/10 04:18:53;;;;;;;1.73;1.52;;;8.20;99.90;;;;;;4964037;28;20098;-80
2023/08/10 04:21:19;;;;;;;2.13;1.67;;;8.20;99.90;;;;;;4962741;28;20041;-79
2023/08/10 04:23:45;;;;;;;2.28;1.95;;;8.20;99.90;;;;;;4990762;28;20042;-79
2023/08/10 04:26:11;;;;;;;2.65;1.50;;;8.20;99.90;;;;;;4986236;28;20062;-80
2023/08/10 04:28:36;;;;;;;1.90;1.80;;;8.20;99.90;;;;;;4979544;28;20121;-79
2023/08/10 04:31:02;;;;;;;1.77;1.67;;;8.20;99.90;;;;;;4988678;28;20058;-80
2023/08/10 04:33:28;;;;;;;3.30;2.00;;;8.30;99.90;;;;;;4990792;28;20022;-78
2023/08/10 04:35:55;;;;;;;6.35;2.22;;;8.30;99.90;;;;;;4997434;28;20246;-81
2023/08/10 04:38:21;;;;;;;1.83;1.65;;;8.30;99.90;;;;;;4994080;28;20034;-79
2023/08/10 04:40:47;;;;;;;1.95;1.75;;;8.40;99.90;;;;;;4975669;28;20042;-79
2023/08/10 04:43:13;;;;;;;2.53;1.80;;;8.40;99.90;;;;;;4972605;28;20129;-81
2023/08/10 04:45:39;;;;;;;1.52;1.42;;;8.40;99.90;;;;;;4995763;28;20026;-79
2023/08/10 04:48:05;;;;;;;4.50;1.63;;;8.40;99.90;;;;;;4990290;28;20065;-81
2023/08/10 04:50:31;;;;;;;4.38;2.15;;;8.40;99.90;;;;;;4993612;28;20027;-81
2023/08/10 04:52:57;;;;;;;3.75;1.65;;;8.50;99.90;;;;;;4986238;28;20527;-81
2023/08/10 04:55:25;;;;;;;1.90;1.45;;;8.40;99.90;;;;;;4988564;28;20110;-79
2023/08/10 04:57:52;;;;;;;3.28;1.67;;;8.50;99.90;;;;;;4991116;28;20066;-79
2023/08/10 05:00:18;;;;;;;2.75;1.67;;;8.50;99.90;;;;;;4992575;28;20049;-80
2023/08/10 05:02:43;;;;;;;2.70;1.48;;;8.50;99.90;;;;;;4993694;28;20129;-81
2023/08/10 05:05:11;;;;;;;2.13;1.80;;;8.50;99.90;;;;;;4993653;28;20042;-80
2023/08/10 05:07:37;;;;;;;2.78;2.58;;;8.50;99.90;;;;;;4985838;28;20045;-80
2023/08/10 05:10:05;;;;;;;1.95;1.60;;;8.60;99.90;;;;;;4990959;28;20042;-81
2023/08/10 05:12:31;;;;;;;4.30;2.10;;;8.60;99.90;;;;;;4997294;28;20035;-81
2023/08/10 05:14:57;;;;;;;3.55;2.42;;;8.60;99.90;;;;;;4970458;28;20053;-80
2023/08/10 05:17:23;;;;;;;2.60;1.85;;;8.70;99.90;;;;;;4994838;28;20094;-82
2023/08/10 05:19:49;;;;;;;2.78;2.58;;;8.70;99.90;;;;;;4980316;28;20098;-81
2023/08/10 05:22:15;;;;;;;2.80;2.60;;;8.80;99.90;;;;;;4998938;28;20048;-82
2023/08/10 05:24:41;;;;;;;3.50;2.00;;;8.80;99.90;;;;;;4998261;28;20081;-80
2023/08/10 05:27:07;;;;;;;6.35;1.90;;;8.90;99.90;;;;;;4986751;28;20121;-81
2023/08/10 05:29:32;;;;;;;1.85;1.70;;;9.00;99.90;;;;;;5001940;28;20042;-80
2023/08/10 05:31:58;;;;;;;1.70;1.60;;;9.10;99.90;;;;;;4990855;28;20125;-82
2023/08/10 05:34:24;;;;;;;6.47;1.50;;;9.20;99.90;;;;;;4979083;28;20057;-81
2023/08/10 05:36:50;;;;;;;2.30;1.60;;;9.30;99.90;;;;;;4986396;28;20042;-83
2023/08/10 05:39:16;;;;;;;2.72;1.77;;;9.40;99.90;;;;;;4990209;28;20041;-81
2023/08/10 05:41:42;;;;;;;2.72;1.70;;;9.70;99.90;;;;;;4991198;28;20031;-81
2023/08/10 05:44:07;;;;;;;2.17;1.85;;;9.90;99.90;;;;;;4975404;28;20049;-81
2023/08/10 05:46:33;;;;;;;4.03;1.55;;;10.20;99.90;;;;;;5004849;28;20034;-80
2023/08/10 05:48:59;;;;;;;4.03;1.92;;;10.50;99.90;;;;;;4979810;28;20065;-81
2023/08/10 05:51:25;;;;;;;2.28;2.08;;;10.90;99.90;;;;;;4976057;28;20092;-82
2023/08/10 05:53:51;;;;;;;2.20;2.00;;;11.30;99.90;;;;;;4988892;28;20030;-80
2023/08/10 05:56:16;;;;;;;2.67;2.00;;;11.60;99.90;;;;;;4992547;28;20082;-82
2023/08/10 05:58:42;;;;;;;9.02;6.78;;;12.00;99.90;;;;;;4994922;28;20109;-80
2023/08/10 06:01:08;;;;;;;9.90;7.72;;;12.30;99.90;;;;;;4993056;28;20120;-80
2023/08/10 06:03:34;;;;;;;10.80;7.70;;;12.50;99.90;;;;;;4992863;28;20038;-81
2023/08/10 06:06:00;;;;;;;11.15;6.93;;;12.70;99.90;;;;;;4989827;28;20066;-81
2023/08/10 06:08:27;;;;;;;7.20;5.45;;;12.80;99.90;;;;;;4961343;28;20038;-78
2023/08/10 06:10:52;;;;;;;5.20;2.20;;;12.90;99.90;;;;;;4988024;28;20031;-79
2023/08/10 06:13:18;;;;;;;2.25;1.73;;;13.10;99.90;;;;;;4988090;28;20506;-80
2023/08/10 06:15:46;;;;;;;4.43;1.55;;;13.30;99.90;;;;;;4985746;28;20045;-77
2023/08/10 06:18:12;;;;;;;2.92;2.15;;;13.50;99.90;;;;;;4968223;28;20058;-79
2023/08/10 06:20:38;;;;;;;2.53;1.80;;;13.50;99.90;;;;;;4984887;28;20440;-79
2023/08/10 06:23:04;;;;;;;2.53;2.10;;;13.60;99.90;;;;;;4990658;28;20061;-80
2023/08/10 06:25:30;;;;;;;1.85;1.75;;;13.70;99.90;;;;;;4996040;28;20050;-79
2023/08/10 06:27:57;;;;;;;2.50;1.38;;;14.00;99.90;;;;;;4995115;28;20030;-78
2023/08/10 06:30:25;;;;;;;2.40;1.45;;;14.40;99.90;;;;;;4983839;28;20044;-80
2023/08/10 06:32:51;;;;;;;2.08;1.50;;;14.90;99.90;;;;;;4987091;28;20026;-79
2023/08/10 06:35:18;;;;;;;1.48;1.35;;;15.20;99.90;;;;;;4993366;28;20026;-80
2023/08/10 06:37:44;;;;;;;2.28;1.40;;;15.50;99.90;;;;;;4991604;28;20031;-80
2023/08/10 06:40:11;;;;;;;2.97;1.48;;;15.70;99.90;;;;;;5001158;28;20073;-80
2023/08/10 06:42:37;;;;;;;2.53;1.30;;;15.70;99.90;;;;;;5006424;28;20026;-79
2023/08/10 06:45:10;;;;;;;2.88;1.10;;;16.00;99.90;;;;;;4977893;28;20037;-80
2023/08/10 06:47:37;;;;;;;1.40;1.08;;;16.30;99.90;;;;;;4996710;28;20086;-80
2023/08/10 06:50:04;;;;;;;5.20;1.73;;;16.60;99.90;;;;;;4999553;28;20292;-79
2023/08/10 06:52:30;;;;;;;1.98;1.40;;;16.90;99.90;;;;;;4986901;28;20041;-80
2023/08/10 06:54:56;;;;;;;3.95;1.50;;;17.10;99.90;;;;;;4993944;28;20041;-79
2023/08/10 06:57:22;;;;;;;4.65;1.40;;;17.10;99.90;;;;;;4989036;28;20050;-80
2023/08/10 06:59:48;;;;;;;1.23;1.00;;;17.30;99.90;;;;;;4988848;28;20642;-79
2023/08/10 07:02:14;;;;;;;1.60;1.23;;;17.60;99.90;;;;;;4998838;28;20057;-79
2023/08/10 07:04:40;;;;;;;0.80;0.80;;;17.60;99.90;;;;;;4988289;28;20061;-79
2023/08/10 07:07:07;;;;;;;1.88;1.23;;;17.70;99.90;;;;;;5001718;28;20026;-78
2023/08/10 07:09:33;;;;;;;1.30;1.20;;;17.80;99.90;;;;;;4967544;28;20148;-80
2023/08/10 07:11:58;;;;;;;6.15;1.20;;;17.70;99.90;;;;;;4979618;28;20046;-79
2023/08/10 07:14:25;;;;;;;3.33;1.00;;;17.90;99.90;;;;;;4987111;28;20023;-79
2023/08/10 07:16:50;;;;;;;3.08;1.30;;;18.10;99.90;;;;;;4990803;28;20045;-79
2023/08/10 07:19:16;;;;;;;4.32;1.30;;;18.40;99.90;;;;;;4986159;28;20462;-80
2023/08/10 07:21:42;;;;;;;2.58;1.60;;;18.20;99.90;;;;;;4987344;28;20039;-79
2023/08/10 07:24:07;;;;;;;2.03;1.60;;;18.30;99.90;;;;;;4991261;28;20038;-80
2023/08/10 07:26:33;;;;;;;3.90;2.47;;;18.30;99.90;;;;;;4974489;28;20041;-82
2023/08/10 07:29:00;;;;;;;3.75;2.00;;;18.30;99.90;;;;;;4953746;28;20042;-79
2023/08/10 07:31:31;;;;;;;2.50;2.22;;;18.30;99.90;;;;;;4936784;28;20560;-80
2023/08/10 07:33:58;;;;;;;5.45;1.85;;;18.50;99.90;;;;;;4976628;28;20102;-79
2023/08/10 07:36:25;;;;;;;1.67;0.98;;;18.70;99.90;;;;;;4983539;28;20035;-80
2023/08/10 07:38:51;;;;;;;1.63;1.13;;;18.90;99.90;;;;;;4979955;28;20038;-81
2023/08/10 07:41:16;;;;;;;2.50;1.90;;;19.00;99.90;;;;;;4979764;28;20184;-79
2023/08/10 07:43:42;;;;;;;1.90;1.15;;;19.00;99.90;;;;;;4976627;28;20580;-78
2023/08/10 07:46:08;;;;;;;2.58;1.25;;;19.00;99.90;;;;;;4968387;28;20272;-79
2023/08/10 07:48:34;;;;;;;1.15;1.05;;;18.90;99.90;;;;;;4981094;28;20070;-79
2023/08/10 07:51:00;;;;;;;9.57;4.88;;;19.00;99.90;;;;;;4984663;28;20050;-80
2023/08/10 07:53:28;;;;;;;4.18;1.40;;;19.10;99.90;;;;;;4988642;28;20039;-79
2023/08/10 07:55:55;;;;;;;1.25;0.90;;;19.20;99.90;;;;;;4988648;28;20030;-77
2023/08/10 07:58:21;;;;;;;4.75;1.98;;;19.40;99.90;;;;;;4987319;28;20065;-80
2023/08/10 08:00:47;;;;;;;1.48;1.23;;;19.60;99.90;;;;;;4990240;28;20022;-80
2023/08/10 08:03:13;;;;;;;2.60;1.20;;;19.60;99.90;;;;;;4983434;28;20051;-78
2023/08/10 08:05:40;;;;;;;1.20;1.05;;;19.60;99.90;;;;;;4970260;28;20038;-79
2023/08/10 08:08:07;;;;;;;3.45;1.48;;;19.70;99.90;;;;;;4979838;28;20045;-82
2023/08/10 08:10:33;;;;;;;3.40;1.30;;;19.70;99.90;;;;;;4986000;28;20035;-80
2023/08/10 08:13:02;;;;;;;3.85;1.10;;;19.60;99.90;;;;;;4984043;28;20055;-79
2023/08/10 08:15:31;;;;;;;3.17;1.13;;;19.50;99.90;;;;;;4985287;28;20035;-81
2023/08/10 08:18:37;;;;;;;1.05;0.90;;;19.50;99.90;;;;;;4990441;28;20030;-79
2023/08/10 08:21:04;;;;;;;1.92;1.20;;;19.60;99.90;;;;;;4992609;28;20450;-79
2023/08/10 08:23:30;;;;;;;2.45;0.98;;;19.70;99.90;;;;;;4994783;28;20035;-81
2023/08/10 08:25:55;;;;;;;1.75;1.05;;;19.70;99.90;;;;;;4995036;28;20041;-81
2023/08/10 08:28:22;;;;;;;1.90;1.30;;;19.70;99.90;;;;;;4992935;28;20091;-79
2023/08/10 08:30:49;;;;;;;1.77;0.88;;;19.80;99.90;;;;;;4989475;28;20038;-77
2023/08/10 08:33:16;;;;;;;2.25;0.80;;;20.00;99.90;;;;;;4989547;28;20069;-80
2023/08/10 08:35:46;;;;;;;1.92;1.10;;;20.10;99.90;;;;;;4997893;28;20244;-81
2023/08/10 08:38:17;;;;;;;1.65;0.95;;;20.20;99.90;;;;;;4990343;28;20038;-80
2023/08/10 08:40:44;;;;;;;1.10;1.00;;;20.20;99.90;;;;;;4999330;28;20048;-80
2023/08/10 08:43:11;;;;;;;1.60;1.05;;;20.20;97.80;;;;;;5000109;28;20101;-79
2023/08/10 08:45:39;;;;;;;2.65;1.10;;;20.10;99.90;;;;;;4998274;28;20038;-81
2023/08/10 08:48:07;;;;;;;2.15;1.23;;;20.00;99.90;;;;;;5004188;28;20038;-81
2023/08/10 08:50:35;;;;;;;3.08;1.00;;;20.00;99.90;;;;;;4987083;28;20031;-81
2023/08/10 08:53:04;;;;;;;3.20;1.25;;;20.00;99.90;;;;;;5001534;28;20093;-79
2023/08/10 08:55:31;;;;;;;1.42;1.23;;;20.00;99.90;;;;;;4985770;28;20030;-78
2023/08/10 08:57:57;;;;;;;1.15;1.05;;;19.90;99.90;;;;;;4996837;28;20030;-79
2023/08/10 09:00:23;;;;;;;1.55;0.80;;;19.90;99.90;;;;;;4995721;28;20053;-79
2023/08/10 09:02:50;;;;;;;1.45;1.10;;;19.80;99.90;;;;;;4974549;28;20465;-82
2023/08/10 09:05:17;;;;;;;2.95;1.00;;;19.70;99.40;;;;;;4989304;28;20088;-84
2023/08/10 09:07:43;;;;;;;3.10;1.20;;;19.60;99.70;;;;;;4961274;28;20047;-81
2023/08/10 09:10:09;;;;;;;1.85;1.00;;;19.60;99.20;;;;;;4989620;28;20088;-78
2023/08/10 09:12:37;;;;;;;1.58;1.10;;;19.60;99.90;;;;;;4988584;28;20498;-81
2023/08/10 09:15:22;;;;;;;1.65;1.52;;;19.50;99.90;;;;;;4994556;28;20034;-81
2023/08/10 09:17:52;;;;;;;1.98;1.23;;;19.50;99.90;;;;;;4990394;28;20030;-81
2023/08/10 09:20:19;;;;;;;1.42;1.10;;;19.30;94.90;;;;;;4986201;28;20074;-80
2023/08/10 09:22:46;;;;;;;1.55;1.02;;;19.20;99.90;;;;;;4988568;28;20034;-81
2023/08/10 09:25:12;;;;;;;1.98;1.13;;;19.20;99.90;;;;;;4980575;28;20054;-81
2023/08/10 09:27:38;;;;;;;1.73;1.10;;;19.10;99.90;;;;;;5000887;28;20035;-81
2023/08/10 09:30:06;;;;;;;1.10;1.00;;;19.00;99.90;;;;;;4988772;28;20038;-81
2023/08/10 09:32:33;;;;;;;2.20;1.10;;;18.90;99.50;;;;;;4982304;28;20042;-83
2023/08/10 09:34:59;;;;;;;3.05;1.20;;;18.90;99.90;;;;;;4982863;28;20062;-79
2023/08/10 09:37:25;;;;;;;1.23;1.00;;;18.90;99.90;;;;;;4992519;28;20660;-81
2023/08/10 09:40:04;;;;;;;2.47;1.48;;;19.00;99.90;;;;;;4990063;28;20034;-81
2023/08/10 09:42:31;;;;;;;1.50;1.40;;;19.00;99.90;;;;;;4985105;28;20042;-80
2023/08/10 09:44:59;;;;;;;1.30;1.20;;;19.00;99.90;;;;;;4974298;28;20030;-80
2023/08/10 09:47:25;;;;;;;2.05;0.95;;;19.00;99.90;;;;;;4994157;28;20085;-78
2023/08/10 09:50:05;;;;;;;2.85;1.20;;;19.10;99.90;;;;;;4991016;28;20042;-79
2023/08/10 09:52:33;;;;;;;1.98;0.90;;;19.10;99.90;;;;;;4981540;28;20037;-78
2023/08/10 09:54:59;;;;;;;1.52;1.10;;;19.20;99.90;;;;;;4974463;28;20038;-80
2023/08/10 09:57:26;;;;;;;1.75;1.20;;;19.30;99.90;;;;;;4977062;28;20045;-78
2023/08/10 09:59:52;;;;;;;2.10;1.10;;;19.30;99.90;;;;;;4989796;28;20040;-80
2023/08/10 10:02:19;;;;;;;2.63;1.55;;;19.30;99.90;;;;;;4985426;28;20121;-79
2023/08/10 10:04:45;;;;;;;1.27;1.17;;;19.30;97.50;;;;;;4991774;28;20034;-80
2023/08/10 10:07:12;;;;;;;3.28;1.42;;;19.40;97.20;;;;;;4990984;28;20050;-80
2023/08/10 10:09:43;;;;;;;1.65;1.55;;;19.40;97.20;;;;;;4983754;28;20058;-81
2023/08/10 10:12:13;;;;;;;2.90;1.40;;;19.30;95.00;;;;;;4989995;28;20078;-79
2023/08/10 10:14:41;;;;;;;4.22;1.40;;;19.30;99.90;;;;;;4986324;28;20038;-80
2023/08/10 10:17:10;;;;;;;2.17;1.50;;;19.40;99.90;;;;;;4976197;28;20077;-78
2023/08/10 10:19:36;;;;;;;1.60;1.50;;;19.50;99.90;;;;;;4990625;28;20054;-81
2023/08/10 10:22:03;;;;;;;1.88;1.42;;;19.60;99.90;;;;;;4974975;28;20061;-79
2023/08/10 10:24:33;;;;;;;3.65;1.55;;;19.60;99.90;;;;;;4979348;28;20046;-81
2023/08/10 10:27:11;;;;;;;1.40;1.30;;;19.80;99.90;;;;;;4973572;28;20169;-80
2023/08/10 10:29:48;;;;;;;1.95;1.50;;;19.70;96.50;;;;;;4986468;28;20034;-80
2023/08/10 10:32:19;;;;;;;2.72;1.50;;;19.80;98.10;;;;;;4998099;28;20521;-79
2023/08/10 10:34:46;;;;;;;2.00;1.40;;;19.80;98.20;;;;;;4997704;28;20057;-81
2023/08/10 10:37:15;;;;;;;2.45;1.40;;;19.90;99.80;;;;;;4992761;28;20061;-81
2023/08/10 10:39:47;;;;;;;3.92;1.50;;;20.00;99.90;;;;;;4989463;28;20458;-80
2023/08/10 10:42:16;;;;;;;1.67;1.40;;;20.10;99.10;;;;;;4986618;28;20403;-83
2023/08/10 10:45:07;;;;;;;2.67;1.40;;;20.00;97.80;;;;;;4982866;28;20031;-80
2023/08/10 10:47:46;;;;;;;1.70;1.48;;;20.10;97.40;;;;;;4990110;28;20046;-81
2023/08/10 10:50:20;;;;;;;1.77;1.65;;;20.30;95.70;;;;;;4977068;28;20802;-80
2023/08/10 10:53:06;;;;;;;2.22;1.30;;;20.40;94.60;;;;;;4988728;28;20797;-81
2023/08/10 10:55:35;;;;;;;3.53;1.40;;;20.50;95.90;;;;;;4993409;28;20073;-82
2023/08/10 10:58:02;;;;;;;3.08;1.88;;;20.60;98.10;;;;;;4992585;28;20434;-79
2023/08/10 11:00:29;;;;;;;1.50;1.40;;;20.70;98.10;;;;;;4987946;28;20049;-82
2023/08/10 11:02:55;;;;;;;4.40;1.50;;;20.70;99.90;;;;;;4973340;28;20487;-79
2023/08/10 11:05:21;;;;;;;1.92;1.60;;;20.60;92.20;;;;;;4982449;28;20042;-81
2023/08/10 11:07:50;;;;;;;1.63;1.42;;;20.60;99.20;;;;;;4985041;28;20041;-79
2023/08/10 11:10:19;;;;;;;1.58;1.48;;;20.60;99.20;;;;;;4979973;28;20062;-83
2023/08/10 11:12:48;;;;;;;1.58;1.45;;;20.70;98.30;;;;;;4984969;28;20076;-83
2023/08/10 11:15:15;;;;;;;2.00;1.40;;;20.60;98.40;;;;;;4981553;28;20073;-79
2023/08/10 11:17:46;;;;;;;1.48;1.38;;;20.30;99.10;;;;;;4970868;28;20478;-81
2023/08/10 11:20:17;;;;;;;1.63;1.52;;;20.40;98.20;;;;;;4982561;28;20041;-80
2023/08/10 11:22:44;;;;;;;2.83;1.70;;;20.40;98.30;;;;;;4972684;28;20038;-82
2023/08/10 11:25:19;;;;;;;2.08;1.65;;;20.50;97.60;;;;;;4987770;28;20054;-82
2023/08/10 11:27:51;;;;;;;1.70;1.60;;;20.60;99.50;;;;;;4984142;28;20062;-81
2023/08/10 11:30:19;;;;;;;4.60;1.70;;;20.80;97.10;;;;;;4984414;28;20495;-80
2023/08/10 11:32:47;;;;;;;2.35;1.80;;;21.00;97.20;;;;;;4972935;28;20065;-83
2023/08/10 11:35:16;;;;;;;2.63;1.58;;;21.10;92.00;;;;;;4982894;28;20034;-82
2023/08/10 11:37:42;;;;;;;2.67;1.70;;;21.30;95.30;;;;;;4989055;28;20030;-80
2023/08/10 11:40:13;;;;;;;1.30;1.20;;;21.50;97.60;;;;;;4967990;28;20041;-84
2023/08/10 11:42:44;;;;;;;1.77;1.67;;;21.50;98.20;;;;;;4974749;28;20510;-80
2023/08/10 11:45:11;;;;;;;1.50;1.30;;;21.60;95.00;;;;;;4988537;28;20549;-82
2023/08/10 11:47:41;;;;;;;3.05;1.15;;;21.60;95.10;;;;;;4995152;28;20039;-80
2023/08/10 11:50:09;;;;;;;2.35;1.48;;;21.70;94.90;;;;;;4994058;28;20387;-81
2023/08/10 11:52:39;;;;;;;2.00;1.77;;;21.80;93.30;;;;;;4991680;28;20089;-81
2023/08/10 11:55:14;;;;;;;2.88;1.50;;;21.70;92.10;;;;;;4975989;28;20061;-81
2023/08/10 11:57:46;;;;;;;1.60;1.38;;;21.70;92.90;;;;;;4994447;28;20041;-83
2023/08/10 12:00:30;;;;;;;2.13;1.40;;;21.70;92.30;;;;;;4974593;28;20046;-83
2023/08/10 12:03:00;;;;;;;1.42;1.33;;;21.60;92.00;;;;;;4970063;28;20039;-82
2023/08/10 12:05:47;;;;;;;4.40;1.58;;;21.50;95.90;;;;;;4986466;28;20036;-84
2023/08/10 12:08:15;;;;;;;1.70;1.60;;;21.50;94.30;;;;;;4990487;28;20037;-80
2023/08/10 12:10:43;;;;;;;2.13;1.58;;;21.50;95.70;;;;;;4994792;28;20030;-81
2023/08/10 12:13:13;;;;;;;2.00;1.58;;;21.50;95.00;;;;;;4991469;28;20026;-80
2023/08/10 12:15:46;;;;;;;1.52;1.20;;;21.40;95.00;;;;;;4991807;28;20098;-83
2023/08/10 12:18:17;;;;;;;3.17;1.80;;;21.50;93.70;;;;;;4988003;28;20034;-80
2023/08/10 12:20:44;;;;;;;3.33;1.50;;;21.40;93.80;;;;;;4993656;28;20526;-80
2023/08/10 12:23:10;;;;;;;1.70;1.60;;;21.40;95.50;;;;;;4994339;28;20077;-80
2023/08/10 12:25:36;;;;;;;2.53;1.60;;;21.40;97.00;;;;;;4993870;28;20037;-79
2023/08/10 12:28:02;;;;;;;3.35;1.75;;;21.40;91.40;;;;;;4993464;28;20026;-80
2023/08/10 12:30:28;;;;;;;1.65;1.55;;;21.50;93.20;;;;;;4992918;28;21275;-79
2023/08/10 12:32:55;;;;;;;1.85;1.70;;;21.60;93.20;;;;;;4986295;28;20030;-81
2023/08/10 12:35:21;;;;;;;4.38;1.33;;;21.70;91.60;;;;;;4993455;28;20120;-81
2023/08/10 12:37:48;;;;;;;1.52;1.40;;;21.70;93.70;;;;;;4990439;28;20073;-81
2023/08/10 12:40:15;;;;;;;1.75;1.65;;;21.80;95.40;;;;;;4993926;28;20045;-81
2023/08/10 12:42:44;;;;;;;1.38;1.27;;;21.90;93.80;;;;;;4998333;28;20042;-80
2023/08/10 12:45:12;;;;;;;2.75;1.70;;;22.00;91.80;;;;;;4993421;28;20033;-81
2023/08/10 12:47:39;;;;;;;1.70;1.60;;;22.20;96.70;;;;;;4992681;28;20084;-79
2023/08/10 12:50:10;;;;;;;1.85;1.58;;;22.30;98.10;;;;;;4990882;28;20031;-80
2023/08/10 12:52:37;;;;;;;1.50;1.23;;;22.40;93.50;;;;;;4987385;28;20463;-80